sensor_id;sensor_type;location;lat;lon;timestamp;temperature;humidity
6758;DHT22;3416;53.074;8.822;2023-05-07T00:01:35;11.20;99.90
6758;DHT22;3416;53.074;8.822;2023-05-07T00:04:04;11.20;99.90
6758;DHT22;3416;53.074;8.822;2023-05-07T00:06:34;11.20;99.90
6758;DHT22;3416;53.074;8.822;2023-05-07T00:09:01;11.30;99.90
6758;DHT22;3416;53.074;8.822;2023-05-07T00:11:29;11.20;99.90
6758;DHT22;3416;53.074;8.822;2023-05-07T00:13:56;11.20;99.90
6758;DHT22;3416;53.074;8.822;2023-05-07T00:16:23;11.20;99.90
6758;DHT22;3416;53.074;8.822;2023-05-07T00:19:04;11.20;99.90
6758;DHT22;3416;53.074;8.822;2023-05-07T00:21:31;11.20;99.90
6758;DHT22;3416;53.074;8.822;2023-05-07T00:24:11;11.20;99.90
6758;DHT22;3416;53.074;8.822;2023-05-07T00:26:38;11.10;99.90
6758;DHT22;3416;53.074;8.822;2023-05-07T00:29:05;11.20;99.90
6758;DHT22;3416;53.074;8.822;2023-05-07T00:32:05;11.20;99.90
6758;DHT22;3416;53.074;8.822;2023-05-07T00:34:32;11.20;99.90
6758;DHT22;3416;53.074;8.822;2023-05-07T00:36:59;11.10;99.90
6758;DHT22;3416;53.074;8.822;2023-05-07T00:39:27;11.10;99.90
6758;DHT22;3416;53.074;8.822;2023-05-07T00:41:54;11.10;99.90
6758;DHT22;3416;53.074;8.822;2023-05-07T00:44:27;11.00;99.90
6758;DHT22;3416;53.074;8.822;2023-05-07T00:46:56;11.00;99.90
6758;DHT22;3416;53.074;8.822;2023-05-07T00:49:29;11.00;99.90
6758;DHT22;3416;53.074;8.822;2023-05-07T00:52:17;11.00;99.90
6758;DHT22;3416;53.074;8.822;2023-05-07T00:54:48;10.90;99.90
6758;DHT22;3416;53.074;8.822;2023-05-07T00:57:16;10.90;99.90
6758;DHT22;3416;53.074;8.822;2023-05-07T00:59:43;10.80;99.90
6758;DHT22;3416;53.074;8.822;2023-05-07T01:02:13;10.70;99.90
6758;DHT22;3416;53.074;8.822;2023-05-07T01:04:41;10.80;99.90
6758;DHT22;3416;53.074;8.822;2023-05-07T01:07:08;10.70;99.90
6758;DHT22;3416;53.074;8.822;2023-05-07T01:09:36;10.70;99.90
6758;DHT22;3416;53.074;8.822;2023-05-07T01:12:06;10.80;99.90
6758;DHT22;3416;53.074;8.822;2023-05-07T01:14:34;10.70;99.90
6758;DHT22;3416;53.074;8.822;2023-05-07T01:17:01;10.90;99.90
6758;DHT22;3416;53.074;8.822;2023-05-07T01:19:29;10.80;99.90
6758;DHT22;3416;53.074;8.822;2023-05-07T01:22:02;10.80;99.90
6758;DHT22;3416;53.074;8.822;2023-05-07T01:24:32;10.80;99.90
6758;DHT22;3416;53.074;8.822;2023-05-07T01:26:59;10.80;99.90
6758;DHT22;3416;53.074;8.822;2023-05-07T01:29:27;10.80;99.90
6758;DHT22;3416;53.074;8.822;2023-05-07T01:31:55;10.80;99.90
6758;DHT22;3416;53.074;8.822;2023-05-07T01:34:24;10.90;99.90
6758;DHT22;3416;53.074;8.822;2023-05-07T01:36:53;10.90;99.90
6758;DHT22;3416;53.074;8.822;2023-05-07T01:39:24;10.90;99.90
6758;DHT22;3416;53.074;8.822;2023-05-07T01:41:55;10.90;99.90
6758;DHT22;3416;53.074;8.822;2023-05-07T01:44:22;10.80;99.90
6758;DHT22;3416;53.074;8.822;2023-05-07T01:46:49;10.80;99.90
6758;DHT22;3416;53.074;8.822;2023-05-07T01:49:17;10.70;99.90
6758;DHT22;3416;53.074;8.822;2023-05-07T01:51:44;10.60;99.90
6758;DHT22;3416;53.074;8.822;2023-05-07T01:54:11;10.60;99.90
6758;DHT22;3416;53.074;8.822;2023-05-07T01:56:38;10.50;99.90
6758;DHT22;3416;53.074;8.822;2023-05-07T01:59:07;10.50;99.90
6758;DHT22;3416;53.074;8.822;2023-05-07T02:01:35;10.50;99.90
6758;DHT22;3416;53.074;8.822;2023-05-07T02:04:01;10.50;99.90
6758;DHT22;3416;53.074;8.822;2023-05-07T02:06:36;10.50;99.90
6758;DHT22;3416;53.074;8.822;2023-05-07T02:09:02;10.40;99.90
6758;DHT22;3416;53.074;8.822;2023-05-07T02:11:51;10.40;99.90
6758;DHT22;3416;53.074;8.822;2023-05-07T02:14:19;10.40;99.90
6758;DHT22;3416;53.074;8.822;2023-05-07T02:17:01;10.30;99.90
6758;DHT22;3416;53.074;8.822;2023-05-07T02:19:28;10.30;99.90
6758;DHT22;3416;53.074;8.822;2023-05-07T02:21:55;10.20;99.90
6758;DHT22;3416;53.074;8.822;2023-05-07T02:24:29;10.20;99.90
6758;DHT22;3416;53.074;8.822;2023-05-07T02:26:56;10.20;99.90
6758;DHT22;3416;53.074;8.822;2023-05-07T02:29:35;10.20;99.90
6758;DHT22;3416;53.074;8.822;2023-05-07T02:32:13;10.10;99.90
6758;DHT22;3416;53.074;8.822;2023-05-07T02:34:40;10.10;99.90
6758;DHT22;3416;53.074;8.822;2023-05-07T02:37:12;10.10;99.90
6758;DHT22;3416;53.074;8.822;2023-05-07T02:39:39;10.10;99.90
6758;DHT22;3416;53.074;8.822;2023-05-07T02:42:30;10.10;99.90
6758;DHT22;3416;53.074;8.822;2023-05-07T02:44:58;10.10;99.90
6758;DHT22;3416;53.074;8.822;2023-05-07T02:47:29;10.20;99.90
6758;DHT22;3416;53.074;8.822;2023-05-07T02:49:56;10.30;99.90
6758;DHT22;3416;53.074;8.822;2023-05-07T02:52:34;10.30;99.90
6758;DHT22;3416;53.074;8.822;2023-05-07T02:55:01;10.30;99.90
6758;DHT22;3416;53.074;8.822;2023-05-07T02:57:36;10.30;99.90
6758;DHT22;3416;53.074;8.822;2023-05-07T03:00:15;10.30;99.90
6758;DHT22;3416;53.074;8.822;2023-05-07T03:02:45;10.30;99.90
6758;DHT22;3416;53.074;8.822;2023-05-07T03:05:12;10.30;99.90
6758;DHT22;3416;53.074;8.822;2023-05-07T03:07:42;10.30;99.90
6758;DHT22;3416;53.074;8.822;2023-05-07T03:10:10;10.30;99.90
6758;DHT22;3416;53.074;8.822;2023-05-07T03:12:38;10.30;99.90
6758;DHT22;3416;53.074;8.822;2023-05-07T03:15:06;10.30;99.90
6758;DHT22;3416;53.074;8.822;2023-05-07T03:17:36;10.30;99.90
6758;DHT22;3416;53.074;8.822;2023-05-07T03:20:04;10.20;99.90
6758;DHT22;3416;53.074;8.822;2023-05-07T03:22:31;10.20;99.90
6758;DHT22;3416;53.074;8.822;2023-05-07T03:24:58;10.20;99.90
6758;DHT22;3416;53.074;8.822;2023-05-07T03:27:25;10.20;99.90
6758;DHT22;3416;53.074;8.822;2023-05-07T03:29:54;10.20;99.90
6758;DHT22;3416;53.074;8.822;2023-05-07T03:32:20;10.30;99.90
6758;DHT22;3416;53.074;8.822;2023-05-07T03:34:49;10.10;99.90
6758;DHT22;3416;53.074;8.822;2023-05-07T03:37:16;10.20;99.90
6758;DHT22;3416;53.074;8.822;2023-05-07T03:39:43;10.10;99.90
6758;DHT22;3416;53.074;8.822;2023-05-07T03:42:09;10.20;99.90
6758;DHT22;3416;53.074;8.822;2023-05-07T03:44:36;10.20;99.90
6758;DHT22;3416;53.074;8.822;2023-05-07T03:47:03;10.30;99.90
6758;DHT22;3416;53.074;8.822;2023-05-07T03:49:32;10.20;99.90
6758;DHT22;3416;53.074;8.822;2023-05-07T03:52:00;10.20;99.90
6758;DHT22;3416;53.074;8.822;2023-05-07T03:54:27;10.20;99.90
6758;DHT22;3416;53.074;8.822;2023-05-07T03:56:54;10.20;99.90
6758;DHT22;3416;53.074;8.822;2023-05-07T03:59:22;10.20;99.90
6758;DHT22;3416;53.074;8.822;2023-05-07T04:01:49;10.20;99.90
6758;DHT22;3416;53.074;8.822;2023-05-07T04:04:17;10.20;99.90
6758;DHT22;3416;53.074;8.822;2023-05-07T04:06:44;10.20;99.90
6758;DHT22;3416;53.074;8.822;2023-05-07T04:09:12;10.20;99.90
6758;DHT22;3416;53.074;8.822;2023-05-07T04:11:39;10.20;99.90
6758;DHT22;3416;53.074;8.822;2023-05-07T04:14:07;10.20;99.90
6758;DHT22;3416;53.074;8.822;2023-05-07T04:16:34;10.20;99.90
6758;DHT22;3416;53.074;8.822;2023-05-07T04:19:01;10.30;99.90
6758;DHT22;3416;53.074;8.822;2023-05-07T04:21:28;10.20;99.90
6758;DHT22;3416;53.074;8.822;2023-05-07T04:23:56;10.30;99.90
6758;DHT22;3416;53.074;8.822;2023-05-07T04:26:24;10.30;99.90
6758;DHT22;3416;53.074;8.822;2023-05-07T04:28:51;10.30;99.90
6758;DHT22;3416;53.074;8.822;2023-05-07T04:31:18;10.30;99.90
6758;DHT22;3416;53.074;8.822;2023-05-07T04:33:45;10.40;99.90
6758;DHT22;3416;53.074;8.822;2023-05-07T04:36:12;10.40;99.90
6758;DHT22;3416;53.074;8.822;2023-05-07T04:38:39;10.40;99.90
6758;DHT22;3416;53.074;8.822;2023-05-07T04:41:06;10.40;99.90
6758;DHT22;3416;53.074;8.822;2023-05-07T04:43:34;10.40;99.90
6758;DHT22;3416;53.074;8.822;2023-05-07T04:46:01;10.40;99.90
6758;DHT22;3416;53.074;8.822;2023-05-07T04:48:28;10.50;99.90
6758;DHT22;3416;53.074;8.822;2023-05-07T04:50:55;10.50;99.90
6758;DHT22;3416;53.074;8.822;2023-05-07T04:53:22;10.50;99.90
6758;DHT22;3416;53.074;8.822;2023-05-07T04:55:54;10.60;99.90
6758;DHT22;3416;53.074;8.822;2023-05-07T04:58:21;10.60;99.90
6758;DHT22;3416;53.074;8.822;2023-05-07T05:00:49;10.60;99.90
6758;DHT22;3416;53.074;8.822;2023-05-07T05:03:16;10.50;99.90
6758;DHT22;3416;53.074;8.822;2023-05-07T05:05:43;10.50;99.90
6758;DHT22;3416;53.074;8.822;2023-05-07T05:08:10;10.50;99.90
6758;DHT22;3416;53.074;8.822;2023-05-07T05:10:37;10.50;99.90
6758;DHT22;3416;53.074;8.822;2023-05-07T05:13:04;10.50;99.90
6758;DHT22;3416;53.074;8.822;2023-05-07T05:15:31;10.50;99.90
6758;DHT22;3416;53.074;8.822;2023-05-07T05:17:59;10.50;99.90
6758;DHT22;3416;53.074;8.822;2023-05-07T05:20:26;10.50;99.90
6758;DHT22;3416;53.074;8.822;2023-05-07T05:22:53;10.40;99.90
6758;DHT22;3416;53.074;8.822;2023-05-07T05:25:20;10.50;99.90
6758;DHT22;3416;53.074;8.822;2023-05-07T05:27:47;10.50;99.90
6758;DHT22;3416;53.074;8.822;2023-05-07T05:30:14;10.60;99.90
6758;DHT22;3416;53.074;8.822;2023-05-07T05:32:41;10.60;99.90
6758;DHT22;3416;53.074;8.822;2023-05-07T05:35:09;10.60;99.90
6758;DHT22;3416;53.074;8.822;2023-05-07T05:37:37;10.60;99.90
6758;DHT22;3416;53.074;8.822;2023-05-07T05:40:05;10.60;99.90
6758;DHT22;3416;53.074;8.822;2023-05-07T05:42:32;10.60;99.90
6758;DHT22;3416;53.074;8.822;2023-05-07T05:44:59;10.60;99.90
6758;DHT22;3416;53.074;8.822;2023-05-07T05:47:26;10.70;99.90
6758;DHT22;3416;53.074;8.822;2023-05-07T05:49:53;10.70;99.90
6758;DHT22;3416;53.074;8.822;2023-05-07T05:52:21;10.70;99.90
6758;DHT22;3416;53.074;8.822;2023-05-07T05:54:49;10.80;99.90
6758;DHT22;3416;53.074;8.822;2023-05-07T05:57:16;10.80;99.90
6758;DHT22;3416;53.074;8.822;2023-05-07T05:59:43;10.80;99.90
6758;DHT22;3416;53.074;8.822;2023-05-07T06:02:10;10.80;99.90
6758;DHT22;3416;53.074;8.822;2023-05-07T06:04:37;10.80;99.90
6758;DHT22;3416;53.074;8.822;2023-05-07T06:07:04;10.80;99.90
6758;DHT22;3416;53.074;8.822;2023-05-07T06:09:32;10.80;99.90
6758;DHT22;3416;53.074;8.822;2023-05-07T06:12:00;10.80;99.90
6758;DHT22;3416;53.074;8.822;2023-05-07T06:14:27;10.90;99.90
6758;DHT22;3416;53.074;8.822;2023-05-07T06:16:56;10.90;99.90
6758;DHT22;3416;53.074;8.822;2023-05-07T06:19:29;11.00;99.90
6758;DHT22;3416;53.074;8.822;2023-05-07T06:21:56;10.90;99.90
6758;DHT22;3416;53.074;8.822;2023-05-07T06:24:24;11.00;99.90
6758;DHT22;3416;53.074;8.822;2023-05-07T06:26:52;10.90;99.90
6758;DHT22;3416;53.074;8.822;2023-05-07T06:29:19;10.90;99.90
6758;DHT22;3416;53.074;8.822;2023-05-07T06:31:47;10.90;99.90
6758;DHT22;3416;53.074;8.822;2023-05-07T06:34:14;10.90;99.90
6758;DHT22;3416;53.074;8.822;2023-05-07T06:36:41;10.90;99.90
6758;DHT22;3416;53.074;8.822;2023-05-07T06:39:08;10.90;99.90
6758;DHT22;3416;53.074;8.822;2023-05-07T06:41:35;11.00;99.90
6758;DHT22;3416;53.074;8.822;2023-05-07T06:44:04;10.90;99.90
6758;DHT22;3416;53.074;8.822;2023-05-07T06:46:31;10.90;99.90
6758;DHT22;3416;53.074;8.822;2023-05-07T06:48:58;11.00;99.90
6758;DHT22;3416;53.074;8.822;2023-05-07T06:51:25;11.00;99.90
6758;DHT22;3416;53.074;8.822;2023-05-07T06:53:52;11.10;99.90
6758;DHT22;3416;53.074;8.822;2023-05-07T06:56:19;11.20;99.90
6758;DHT22;3416;53.074;8.822;2023-05-07T06:58:46;11.10;99.90
6758;DHT22;3416;53.074;8.822;2023-05-07T07:01:14;11.20;99.90
6758;DHT22;3416;53.074;8.822;2023-05-07T07:03:41;11.30;99.90
6758;DHT22;3416;53.074;8.822;2023-05-07T07:06:08;11.30;99.90
6758;DHT22;3416;53.074;8.822;2023-05-07T07:08:35;11.50;99.90
6758;DHT22;3416;53.074;8.822;2023-05-07T07:11:04;11.50;99.90
6758;DHT22;3416;53.074;8.822;2023-05-07T07:13:31;11.60;99.90
6758;DHT22;3416;53.074;8.822;2023-05-07T07:15:58;11.80;99.90
6758;DHT22;3416;53.074;8.822;2023-05-07T07:18:26;12.00;99.90
6758;DHT22;3416;53.074;8.822;2023-05-07T07:20:54;12.10;99.90
6758;DHT22;3416;53.074;8.822;2023-05-07T07:23:21;12.00;99.90
6758;DHT22;3416;53.074;8.822;2023-05-07T07:25:48;12.00;99.90
6758;DHT22;3416;53.074;8.822;2023-05-07T07:28:15;11.90;99.90
6758;DHT22;3416;53.074;8.822;2023-05-07T07:30:43;11.90;99.90
6758;DHT22;3416;53.074;8.822;2023-05-07T07:33:10;12.00;99.90
6758;DHT22;3416;53.074;8.822;2023-05-07T07:35:38;12.00;99.90
6758;DHT22;3416;53.074;8.822;2023-05-07T07:38:05;12.10;99.90
6758;DHT22;3416;53.074;8.822;2023-05-07T07:40:34;12.10;99.90
6758;DHT22;3416;53.074;8.822;2023-05-07T07:43:01;12.00;99.90
6758;DHT22;3416;53.074;8.822;2023-05-07T07:45:28;12.10;99.90
6758;DHT22;3416;53.074;8.822;2023-05-07T07:47:55;12.10;99.90
6758;DHT22;3416;53.074;8.822;2023-05-07T07:50:22;12.10;99.90
6758;DHT22;3416;53.074;8.822;2023-05-07T07:52:50;12.20;99.90
6758;DHT22;3416;53.074;8.822;2023-05-07T07:55:20;12.30;99.90
6758;DHT22;3416;53.074;8.822;2023-05-07T07:57:48;12.30;99.90
6758;DHT22;3416;53.074;8.822;2023-05-07T08:00:16;12.40;99.90
6758;DHT22;3416;53.074;8.822;2023-05-07T08:02:44;12.50;99.90
6758;DHT22;3416;53.074;8.822;2023-05-07T08:05:11;12.70;99.90
6758;DHT22;3416;53.074;8.822;2023-05-07T08:07:38;13.00;99.90
6758;DHT22;3416;53.074;8.822;2023-05-07T08:10:07;13.10;99.90
6758;DHT22;3416;53.074;8.822;2023-05-07T08:12:34;13.20;99.90
6758;DHT22;3416;53.074;8.822;2023-05-07T08:15:01;13.10;99.90
6758;DHT22;3416;53.074;8.822;2023-05-07T08:17:27;13.10;99.90
6758;DHT22;3416;53.074;8.822;2023-05-07T08:19:54;13.10;99.90
6758;DHT22;3416;53.074;8.822;2023-05-07T08:22:21;13.10;99.90
6758;DHT22;3416;53.074;8.822;2023-05-07T08:24:48;13.10;99.90
6758;DHT22;3416;53.074;8.822;2023-05-07T08:27:16;13.10;99.90
6758;DHT22;3416;53.074;8.822;2023-05-07T08:29:51;13.20;99.90
6758;DHT22;3416;53.074;8.822;2023-05-07T08:32:19;13.20;99.90
6758;DHT22;3416;53.074;8.822;2023-05-07T08:34:46;13.30;99.90
6758;DHT22;3416;53.074;8.822;2023-05-07T08:37:13;13.20;99.90
6758;DHT22;3416;53.074;8.822;2023-05-07T08:39:40;13.20;99.90
6758;DHT22;3416;53.074;8.822;2023-05-07T08:42:09;13.20;99.90
6758;DHT22;3416;53.074;8.822;2023-05-07T08:44:39;13.10;99.90
6758;DHT22;3416;53.074;8.822;2023-05-07T08:47:07;13.10;99.90
6758;DHT22;3416;53.074;8.822;2023-05-07T08:49:35;13.00;99.90
6758;DHT22;3416;53.074;8.822;2023-05-07T08:52:02;13.00;99.90
6758;DHT22;3416;53.074;8.822;2023-05-07T08:54:29;13.00;99.90
6758;DHT22;3416;53.074;8.822;2023-05-07T08:56:57;13.00;99.90
6758;DHT22;3416;53.074;8.822;2023-05-07T08:59:25;13.10;99.90
6758;DHT22;3416;53.074;8.822;2023-05-07T09:01:53;13.40;99.90
6758;DHT22;3416;53.074;8.822;2023-05-07T09:04:27;13.70;99.90
6758;DHT22;3416;53.074;8.822;2023-05-07T09:06:56;13.70;99.90
6758;DHT22;3416;53.074;8.822;2023-05-07T09:09:38;13.80;99.90
6758;DHT22;3416;53.074;8.822;2023-05-07T09:12:06;13.80;99.90
6758;DHT22;3416;53.074;8.822;2023-05-07T09:14:33;13.80;99.90
6758;DHT22;3416;53.074;8.822;2023-05-07T09:17:08;13.90;99.90
6758;DHT22;3416;53.074;8.822;2023-05-07T09:19:35;14.00;99.90
6758;DHT22;3416;53.074;8.822;2023-05-07T09:22:03;14.10;99.90
6758;DHT22;3416;53.074;8.822;2023-05-07T09:24:32;14.00;99.90
6758;DHT22;3416;53.074;8.822;2023-05-07T09:27:02;14.10;99.90
6758;DHT22;3416;53.074;8.822;2023-05-07T09:29:30;14.30;99.90
6758;DHT22;3416;53.074;8.822;2023-05-07T09:32:03;14.40;99.90
6758;DHT22;3416;53.074;8.822;2023-05-07T09:34:33;14.30;99.90
6758;DHT22;3416;53.074;8.822;2023-05-07T09:37:01;14.40;99.90
6758;DHT22;3416;53.074;8.822;2023-05-07T09:39:38;14.60;99.90
6758;DHT22;3416;53.074;8.822;2023-05-07T09:42:06;14.60;99.90
6758;DHT22;3416;53.074;8.822;2023-05-07T09:44:33;14.80;99.90
6758;DHT22;3416;53.074;8.822;2023-05-07T09:47:04;14.90;99.90
6758;DHT22;3416;53.074;8.822;2023-05-07T09:49:34;15.10;99.90
6758;DHT22;3416;53.074;8.822;2023-05-07T09:52:02;15.20;99.90
6758;DHT22;3416;53.074;8.822;2023-05-07T09:54:31;15.20;99.90
6758;DHT22;3416;53.074;8.822;2023-05-07T09:57:00;15.20;99.90
6758;DHT22;3416;53.074;8.822;2023-05-07T09:59:29;15.20;99.90
6758;DHT22;3416;53.074;8.822;2023-05-07T10:01:58;15.20;99.90
6758;DHT22;3416;53.074;8.822;2023-05-07T10:04:26;15.30;99.90
6758;DHT22;3416;53.074;8.822;2023-05-07T10:06:54;15.30;99.90
6758;DHT22;3416;53.074;8.822;2023-05-07T10:09:22;15.20;99.90
6758;DHT22;3416;53.074;8.822;2023-05-07T10:11:51;15.10;99.90
6758;DHT22;3416;53.074;8.822;2023-05-07T10:14:20;14.90;99.90
6758;DHT22;3416;53.074;8.822;2023-05-07T10:16:48;15.20;99.90
6758;DHT22;3416;53.074;8.822;2023-05-07T10:19:16;15.30;99.90
6758;DHT22;3416;53.074;8.822;2023-05-07T10:21:48;15.30;99.90
6758;DHT22;3416;53.074;8.822;2023-05-07T10:24:21;15.20;99.90
6758;DHT22;3416;53.074;8.822;2023-05-07T10:26:51;15.10;99.90
6758;DHT22;3416;53.074;8.822;2023-05-07T10:29:32;15.00;99.90
6758;DHT22;3416;53.074;8.822;2023-05-07T10:32:18;15.10;99.90
6758;DHT22;3416;53.074;8.822;2023-05-07T10:34:49;15.10;99.90
6758;DHT22;3416;53.074;8.822;2023-05-07T10:37:17;15.20;99.90
6758;DHT22;3416;53.074;8.822;2023-05-07T10:39:47;15.50;99.90
6758;DHT22;3416;53.074;8.822;2023-05-07T10:42:14;15.60;99.90
6758;DHT22;3416;53.074;8.822;2023-05-07T10:44:41;15.50;99.90
6758;DHT22;3416;53.074;8.822;2023-05-07T10:47:09;15.40;99.90
6758;DHT22;3416;53.074;8.822;2023-05-07T10:49:38;15.30;99.90
6758;DHT22;3416;53.074;8.822;2023-05-07T10:52:25;15.40;99.90
6758;DHT22;3416;53.074;8.822;2023-05-07T10:55:21;15.40;99.90
6758;DHT22;3416;53.074;8.822;2023-05-07T10:57:50;15.60;99.90
6758;DHT22;3416;53.074;8.822;2023-05-07T11:00:41;15.90;99.90
6758;DHT22;3416;53.074;8.822;2023-05-07T11:03:09;16.30;99.90
6758;DHT22;3416;53.074;8.822;2023-05-07T11:05:37;16.90;99.90
6758;DHT22;3416;53.074;8.822;2023-05-07T11:08:05;17.10;99.90
6758;DHT22;3416;53.074;8.822;2023-05-07T11:10:51;17.10;99.90
6758;DHT22;3416;53.074;8.822;2023-05-07T11:13:19;17.10;99.90
6758;DHT22;3416;53.074;8.822;2023-05-07T11:16:16;17.20;99.90
6758;DHT22;3416;53.074;8.822;2023-05-07T11:18:47;17.20;99.90
6758;DHT22;3416;53.074;8.822;2023-05-07T11:21:32;17.10;99.90
6758;DHT22;3416;53.074;8.822;2023-05-07T11:24:00;17.10;99.90
6758;DHT22;3416;53.074;8.822;2023-05-07T11:26:30;16.90;99.90
6758;DHT22;3416;53.074;8.822;2023-05-07T11:28:57;17.20;99.90
6758;DHT22;3416;53.074;8.822;2023-05-07T11:31:27;17.30;99.90
6758;DHT22;3416;53.074;8.822;2023-05-07T11:33:55;17.40;99.90
6758;DHT22;3416;53.074;8.822;2023-05-07T11:36:30;17.50;99.90
6758;DHT22;3416;53.074;8.822;2023-05-07T11:38:58;17.60;99.90
6758;DHT22;3416;53.074;8.822;2023-05-07T11:41:35;17.70;99.90
6758;DHT22;3416;53.074;8.822;2023-05-07T11:44:03;18.00;99.90
6758;DHT22;3416;53.074;8.822;2023-05-07T11:46:30;18.10;99.70
6758;DHT22;3416;53.074;8.822;2023-05-07T11:48:57;18.00;99.90
6758;DHT22;3416;53.074;8.822;2023-05-07T11:51:25;17.70;99.90
6758;DHT22;3416;53.074;8.822;2023-05-07T11:53:53;17.40;99.90
6758;DHT22;3416;53.074;8.822;2023-05-07T11:56:20;17.40;99.90
6758;DHT22;3416;53.074;8.822;2023-05-07T11:58:48;17.30;99.90
6758;DHT22;3416;53.074;8.822;2023-05-07T12:01:23;17.10;99.90
6758;DHT22;3416;53.074;8.822;2023-05-07T12:03:50;17.10;99.90
6758;DHT22;3416;53.074;8.822;2023-05-07T12:06:17;17.10;99.90
6758;DHT22;3416;53.074;8.822;2023-05-07T12:08:45;17.10;99.90
6758;DHT22;3416;53.074;8.822;2023-05-07T12:11:18;17.10;99.90
6758;DHT22;3416;53.074;8.822;2023-05-07T12:13:49;17.10;99.90
6758;DHT22;3416;53.074;8.822;2023-05-07T12:16:16;17.20;99.90
6758;DHT22;3416;53.074;8.822;2023-05-07T12:18:47;17.30;99.90
6758;DHT22;3416;53.074;8.822;2023-05-07T12:21:18;17.40;99.90
6758;DHT22;3416;53.074;8.822;2023-05-07T12:23:45;17.50;99.90
6758;DHT22;3416;53.074;8.822;2023-05-07T12:26:13;17.40;99.90
6758;DHT22;3416;53.074;8.822;2023-05-07T12:28:40;17.50;99.90
6758;DHT22;3416;53.074;8.822;2023-05-07T12:31:09;17.40;99.90
6758;DHT22;3416;53.074;8.822;2023-05-07T12:33:35;17.30;99.90
6758;DHT22;3416;53.074;8.822;2023-05-07T12:36:05;17.10;99.90
6758;DHT22;3416;53.074;8.822;2023-05-07T12:38:37;17.10;99.90
6758;DHT22;3416;53.074;8.822;2023-05-07T12:41:05;17.20;99.90
6758;DHT22;3416;53.074;8.822;2023-05-07T12:43:32;17.10;99.90
6758;DHT22;3416;53.074;8.822;2023-05-07T12:46:01;16.90;99.90
6758;DHT22;3416;53.074;8.822;2023-05-07T12:48:29;17.10;99.90
6758;DHT22;3416;53.074;8.822;2023-05-07T12:50:58;17.10;99.90
6758;DHT22;3416;53.074;8.822;2023-05-07T12:53:26;16.90;99.90
6758;DHT22;3416;53.074;8.822;2023-05-07T12:55:55;16.80;99.90
6758;DHT22;3416;53.074;8.822;2023-05-07T12:58:25;16.90;99.90
6758;DHT22;3416;53.074;8.822;2023-05-07T13:00:52;17.10;99.90
6758;DHT22;3416;53.074;8.822;2023-05-07T13:03:24;17.10;99.90
6758;DHT22;3416;53.074;8.822;2023-05-07T13:05:53;17.10;99.90
6758;DHT22;3416;53.074;8.822;2023-05-07T13:08:27;17.20;99.90
6758;DHT22;3416;53.074;8.822;2023-05-07T13:10:55;17.20;99.90
6758;DHT22;3416;53.074;8.822;2023-05-07T13:13:23;17.30;99.90
6758;DHT22;3416;53.074;8.822;2023-05-07T13:15:50;17.40;99.90
6758;DHT22;3416;53.074;8.822;2023-05-07T13:18:17;17.40;99.90
6758;DHT22;3416;53.074;8.822;2023-05-07T13:20:44;17.60;99.90
6758;DHT22;3416;53.074;8.822;2023-05-07T13:23:12;17.80;99.90
6758;DHT22;3416;53.074;8.822;2023-05-07T13:25:39;18.00;99.90
6758;DHT22;3416;53.074;8.822;2023-05-07T13:28:06;18.10;99.90
6758;DHT22;3416;53.074;8.822;2023-05-07T13:30:33;18.20;99.50
6758;DHT22;3416;53.074;8.822;2023-05-07T13:33:00;18.20;99.10
6758;DHT22;3416;53.074;8.822;2023-05-07T13:35:27;18.10;99.00
6758;DHT22;3416;53.074;8.822;2023-05-07T13:37:54;18.00;99.30
6758;DHT22;3416;53.074;8.822;2023-05-07T13:40:23;17.70;99.30
6758;DHT22;3416;53.074;8.822;2023-05-07T13:42:50;17.80;99.60
6758;DHT22;3416;53.074;8.822;2023-05-07T13:45:17;17.80;99.40
6758;DHT22;3416;53.074;8.822;2023-05-07T13:47:45;17.70;99.70
6758;DHT22;3416;53.074;8.822;2023-05-07T13:50:13;17.90;99.80
6758;DHT22;3416;53.074;8.822;2023-05-07T13:52:46;17.90;99.60
6758;DHT22;3416;53.074;8.822;2023-05-07T13:55:16;18.00;99.70
6758;DHT22;3416;53.074;8.822;2023-05-07T13:57:44;17.90;99.70
6758;DHT22;3416;53.074;8.822;2023-05-07T14:00:12;17.80;99.80
6758;DHT22;3416;53.074;8.822;2023-05-07T14:02:40;17.80;99.90
6758;DHT22;3416;53.074;8.822;2023-05-07T14:05:07;17.60;99.90
6758;DHT22;3416;53.074;8.822;2023-05-07T14:07:36;17.60;99.90
6758;DHT22;3416;53.074;8.822;2023-05-07T14:10:13;17.50;99.90
6758;DHT22;3416;53.074;8.822;2023-05-07T14:12:46;17.30;99.90
6758;DHT22;3416;53.074;8.822;2023-05-07T14:15:14;17.30;99.90
6758;DHT22;3416;53.074;8.822;2023-05-07T14:17:42;17.30;99.90
6758;DHT22;3416;53.074;8.822;2023-05-07T14:20:10;17.40;99.90
6758;DHT22;3416;53.074;8.822;2023-05-07T14:22:38;17.30;99.90
6758;DHT22;3416;53.074;8.822;2023-05-07T14:25:06;17.20;99.90
6758;DHT22;3416;53.074;8.822;2023-05-07T14:27:35;17.30;99.90
6758;DHT22;3416;53.074;8.822;2023-05-07T14:30:03;17.30;99.90
6758;DHT22;3416;53.074;8.822;2023-05-07T14:32:32;17.40;99.90
6758;DHT22;3416;53.074;8.822;2023-05-07T14:34:59;17.50;99.90
6758;DHT22;3416;53.074;8.822;2023-05-07T14:37:26;17.60;99.90
6758;DHT22;3416;53.074;8.822;2023-05-07T14:39:55;17.60;99.90
6758;DHT22;3416;53.074;8.822;2023-05-07T14:42:21;17.50;99.90
6758;DHT22;3416;53.074;8.822;2023-05-07T14:44:49;17.50;99.90
6758;DHT22;3416;53.074;8.822;2023-05-07T14:47:17;17.50;99.90
6758;DHT22;3416;53.074;8.822;2023-05-07T14:49:45;17.50;99.90
6758;DHT22;3416;53.074;8.822;2023-05-07T14:52:12;17.40;99.70
6758;DHT22;3416;53.074;8.822;2023-05-07T14:54:39;17.40;99.90
6758;DHT22;3416;53.074;8.822;2023-05-07T14:57:07;17.20;99.90
6758;DHT22;3416;53.074;8.822;2023-05-07T14:59:35;17.20;99.90
6758;DHT22;3416;53.074;8.822;2023-05-07T15:02:02;17.20;99.90
6758;DHT22;3416;53.074;8.822;2023-05-07T15:04:32;17.20;99.90
6758;DHT22;3416;53.074;8.822;2023-05-07T15:06:59;17.30;99.90
6758;DHT22;3416;53.074;8.822;2023-05-07T15:09:26;17.50;99.60
6758;DHT22;3416;53.074;8.822;2023-05-07T15:11:53;17.50;99.40
6758;DHT22;3416;53.074;8.822;2023-05-07T15:14:20;17.40;99.70
6758;DHT22;3416;53.074;8.822;2023-05-07T15:16:47;17.30;99.50
6758;DHT22;3416;53.074;8.822;2023-05-07T15:19:14;17.10;99.60
6758;DHT22;3416;53.074;8.822;2023-05-07T15:21:43;17.10;99.90
6758;DHT22;3416;53.074;8.822;2023-05-07T15:24:10;17.00;99.90
6758;DHT22;3416;53.074;8.822;2023-05-07T15:26:37;17.00;99.90
6758;DHT22;3416;53.074;8.822;2023-05-07T15:29:04;16.90;99.90
6758;DHT22;3416;53.074;8.822;2023-05-07T15:31:35;16.90;99.90
6758;DHT22;3416;53.074;8.822;2023-05-07T15:34:03;17.00;99.90
6758;DHT22;3416;53.074;8.822;2023-05-07T15:36:30;17.00;99.60
6758;DHT22;3416;53.074;8.822;2023-05-07T15:38:58;17.10;99.80
6758;DHT22;3416;53.074;8.822;2023-05-07T15:41:27;17.20;99.70
6758;DHT22;3416;53.074;8.822;2023-05-07T15:43:54;17.10;99.60
6758;DHT22;3416;53.074;8.822;2023-05-07T15:46:22;17.10;99.60
6758;DHT22;3416;53.074;8.822;2023-05-07T15:48:50;17.20;99.70
6758;DHT22;3416;53.074;8.822;2023-05-07T15:51:17;17.30;99.20
6758;DHT22;3416;53.074;8.822;2023-05-07T15:53:45;17.30;99.20
6758;DHT22;3416;53.074;8.822;2023-05-07T15:56:13;17.30;99.20
6758;DHT22;3416;53.074;8.822;2023-05-07T15:58:41;17.40;98.80
6758;DHT22;3416;53.074;8.822;2023-05-07T16:01:07;17.50;98.40
6758;DHT22;3416;53.074;8.822;2023-05-07T16:03:35;17.50;98.50
6758;DHT22;3416;53.074;8.822;2023-05-07T16:06:03;17.50;98.90
6758;DHT22;3416;53.074;8.822;2023-05-07T16:08:32;17.40;98.70
6758;DHT22;3416;53.074;8.822;2023-05-07T16:10:59;17.40;98.80
6758;DHT22;3416;53.074;8.822;2023-05-07T16:13:28;17.40;98.60